Time;durP1;ratioP1;P1;durP2;ratioP2;P2;SDS_P1;SDS_P2;PMS_P1;PMS_P2;Temp;Humidity;BMP_temperature;BMP_pressure;BME280_temperature;BME280_humidity;BME280_pressure;Samples;Min_cycle;Max_cycle;Signal;HPM_P1;HPM_P2
2023/06/16 05:00:40;;;;;;;41.17;23.25;;;18.20;99.90;;;;;;6301242;22;20229;-92
2023/06/16 05:03:07;;;;;;;131.27;50.50;;;18.40;99.90;;;;;;6308511;22;20179;-94
2023/06/16 05:05:33;;;;;;;153.68;61.28;;;18.60;1.00;;;;;;6308236;22;20177;-91
2023/06/16 05:08:00;;;;;;;30.95;19.95;;;18.80;1.00;;;;;;6308987;22;20506;-93
2023/06/16 05:10:27;;;;;;;21.17;14.95;;;18.80;1.00;;;;;;6308469;22;20172;-92
2023/06/16 05:12:54;;;;;;;111.45;47.08;;;18.70;99.90;;;;;;6307988;22;20177;-92
2023/06/16 05:15:21;;;;;;;116.50;49.88;;;18.70;1.00;;;;;;6308115;22;20174;-94
2023/06/16 05:17:49;;;;;;;67.35;33.22;;;18.70;99.90;;;;;;6308950;22;20250;-92
2023/06/16 05:20:16;;;;;;;43.30;24.55;;;18.70;99.90;;;;;;6309315;22;20228;-92
2023/06/16 05:22:43;;;;;;;25.70;17.75;;;18.70;99.90;;;;;;6308810;22;20658;-92
2023/06/16 05:25:10;;;;;;;194.32;72.40;;;18.70;1.00;;;;;;6309063;22;20166;-92
2023/06/16 05:27:37;;;;;;;209.20;71.65;;;18.90;1.00;;;;;;6308842;22;20163;-91
2023/06/16 05:30:04;;;;;;;405.55;136.80;;;18.90;99.90;;;;;;6309821;22;20167;-91
2023/06/16 05:32:31;;;;;;;427.17;149.98;;;18.90;99.90;;;;;;6309162;22;20206;-92
2023/06/16 05:34:59;;;;;;;44.78;25.85;;;19.00;99.90;;;;;;6309173;22;20505;-91
2023/06/16 05:37:26;;;;;;;35.60;23.50;;;19.00;99.90;;;;;;6309331;22;20167;-92
2023/06/16 05:39:53;;;;;;;23.85;16.80;;;19.10;32.70;;;;;;6309427;22;20176;-91
2023/06/16 05:42:19;;;;;;;41.97;27.48;;;19.10;99.90;;;;;;6308384;22;20186;-91
2023/06/16 05:44:47;;;;;;;26.95;20.20;;;19.10;69.00;;;;;;6309025;22;20202;-92
2023/06/16 05:47:14;;;;;;;26.75;17.58;;;19.20;1.00;;;;;;6309078;22;20167;-92
2023/06/16 05:49:40;;;;;;;29.63;21.67;;;19.20;1.00;;;;;;6309248;22;20171;-92
2023/06/16 05:52:09;;;;;;;29.95;21.42;;;19.30;1.00;;;;;;6309060;22;20163;-92
2023/06/16 05:54:36;;;;;;;26.40;18.05;;;19.30;1.00;;;;;;6309020;22;20171;-92
2023/06/16 05:57:03;;;;;;;24.25;17.75;;;19.30;1.00;;;;;;6308938;22;20170;-92
2023/06/16 05:59:30;;;;;;;31.27;18.48;;;19.40;1.00;;;;;;6308831;22;20190;-93
2023/06/16 06:01:57;;;;;;;29.40;18.90;;;19.50;1.00;;;;;;6308993;22;20199;-91
2023/06/16 06:04:28;;;;;;;25.42;18.13;;;19.60;1.00;;;;;;6309141;22;20170;-92
2023/06/16 06:06:55;;;;;;;25.65;18.08;;;19.60;1.00;;;;;;6308794;22;20246;-92
2023/06/16 06:09:24;;;;;;;26.70;18.75;;;19.80;1.00;;;;;;6309212;22;20172;-92
2023/06/16 06:11:51;;;;;;;44.70;25.42;;;20.00;1.00;;;;;;6308944;22;20169;-92
2023/06/16 06:14:18;;;;;;;26.88;18.63;;;20.20;1.00;;;;;;6309146;22;20170;-91
2023/06/16 06:16:45;;;;;;;27.95;18.27;;;20.40;99.90;;;;;;6309414;22;20167;-92
2023/06/16 06:19:12;;;;;;;27.77;19.20;;;20.60;99.90;;;;;;6308833;22;20482;-93
2023/06/16 06:21:39;;;;;;;27.67;20.38;;;20.90;99.90;;;;;;6309000;22;20515;-92
2023/06/16 06:24:06;;;;;;;26.02;18.05;;;21.20;99.90;;;;;;6309121;22;20192;-91
2023/06/16 06:26:34;;;;;;;25.58;19.45;;;21.60;1.00;;;;;;6308930;22;20171;-93
2023/06/16 06:29:01;;;;;;;28.02;19.73;;;21.80;1.00;;;;;;6308935;22;20232;-93
2023/06/16 06:31:28;;;;;;;24.60;18.60;;;22.00;1.00;;;;;;6309152;22;20246;-92
2023/06/16 06:33:54;;;;;;;27.10;18.60;;;22.30;1.00;;;;;;6309073;22;20173;-92
2023/06/16 06:36:22;;;;;;;25.20;16.85;;;22.90;1.00;;;;;;6309217;22;20178;-93
2023/06/16 06:38:49;;;;;;;31.52;20.00;;;23.50;99.90;;;;;;6309087;22;20167;-93
2023/06/16 06:41:17;;;;;;;26.33;18.48;;;23.80;1.00;;;;;;6308722;22;20253;-93
2023/06/16 06:43:45;;;;;;;24.45;17.55;;;23.70;1.00;;;;;;6308837;22;20171;-93
2023/06/16 06:46:12;;;;;;;24.52;16.38;;;23.60;1.00;;;;;;6309173;22;20229;-93
2023/06/16 06:48:39;;;;;;;24.60;17.77;;;23.50;1.00;;;;;;6309010;22;20220;-93
2023/06/16 06:51:06;;;;;;;19.20;15.45;;;23.40;1.00;;;;;;6309095;22;20291;-93
2023/06/16 06:53:32;;;;;;;26.50;18.92;;;23.30;1.00;;;;;;6308348;22;20163;-94
2023/06/16 06:55:59;;;;;;;18.27;14.65;;;23.30;1.00;;;;;;6309638;22;20167;-93
2023/06/16 06:58:26;;;;;;;18.17;14.50;;;23.40;1.00;;;;;;6310631;22;20175;-94
2023/06/16 07:00:54;;;;;;;21.13;14.95;;;23.20;1.00;;;;;;6310430;22;20195;-93
2023/06/16 07:03:21;;;;;;;18.10;13.82;;;23.10;1.00;;;;;;6310748;22;20228;-93
2023/06/16 07:05:48;;;;;;;19.27;14.05;;;23.00;1.00;;;;;;6310939;22;20174;-94
2023/06/16 07:08:14;;;;;;;19.15;13.70;;;22.70;1.00;;;;;;6310766;22;20173;-93
2023/06/16 07:10:41;;;;;;;19.92;14.55;;;22.60;1.00;;;;;;6310708;22;20177;-94
2023/06/16 07:13:08;;;;;;;16.83;14.20;;;22.60;1.00;;;;;;6310595;22;20167;-93
2023/06/16 07:15:35;;;;;;;16.00;13.07;;;22.70;1.00;;;;;;6310744;22;20173;-93
2023/06/16 07:18:03;;;;;;;15.93;12.15;;;22.70;1.00;;;;;;6310840;22;20168;-94
2023/06/16 07:20:30;;;;;;;19.40;13.50;;;22.50;1.00;;;;;;6310599;22;20173;-94
2023/06/16 07:22:57;;;;;;;14.18;11.93;;;22.40;1.00;;;;;;6310264;22;20194;-94
2023/06/16 07:25:24;;;;;;;18.35;11.93;;;22.50;1.00;;;;;;6310730;22;20173;-94
2023/06/16 07:27:50;;;;;;;18.05;11.80;;;22.70;1.00;;;;;;6310722;22;20167;-93
2023/06/16 07:30:17;;;;;;;14.52;11.65;;;22.70;1.00;;;;;;6310484;22;20201;-93
2023/06/16 07:32:45;;;;;;;15.63;11.18;;;22.80;1.00;;;;;;6310529;22;20167;-94
2023/06/16 07:35:13;;;;;;;13.88;11.88;;;22.60;1.00;;;;;;6310163;22;20250;-94
2023/06/16 07:37:40;;;;;;;15.07;12.52;;;22.30;1.00;;;;;;6309959;22;20171;-94
2023/06/16 07:40:08;;;;;;;14.82;11.13;;;22.20;1.00;;;;;;6310398;22;20171;-93
2023/06/16 07:42:35;;;;;;;15.27;12.57;;;22.20;1.00;;;;;;6310192;22;20186;-93
2023/06/16 07:45:02;;;;;;;18.30;12.00;;;22.40;1.00;;;;;;6310654;22;20167;-93
2023/06/16 07:47:29;;;;;;;12.90;11.55;;;22.70;1.00;;;;;;6310572;22;20258;-94
2023/06/16 07:49:56;;;;;;;11.98;8.95;;;23.10;1.00;;;;;;6310139;22;20167;-93
2023/06/16 07:52:24;;;;;;;13.55;9.40;;;23.40;1.00;;;;;;6310084;22;20163;-94
2023/06/16 07:54:51;;;;;;;12.23;10.77;;;23.20;1.00;;;;;;6310581;22;20167;-94
2023/06/16 07:57:17;;;;;;;11.95;10.73;;;23.00;1.00;;;;;;6310803;22;20171;-92
2023/06/16 07:59:44;;;;;;;13.23;11.65;;;22.70;1.00;;;;;;6310042;22;20202;-93
2023/06/16 08:02:11;;;;;;;15.10;10.63;;;22.80;1.00;;;;;;6310307;22;20197;-95
2023/06/16 08:04:38;;;;;;;11.98;10.20;;;23.00;1.00;;;;;;6309761;22;20701;-94
2023/06/16 08:07:05;;;;;;;17.95;10.52;;;23.00;1.00;;;;;;6309799;22;20167;-94
2023/06/16 08:09:33;;;;;;;13.15;10.25;;;22.90;1.00;;;;;;6310265;22;20167;-94
2023/06/16 08:12:00;;;;;;;11.80;10.23;;;23.00;1.00;;;;;;6310342;22;20163;-94
2023/06/16 08:14:27;;;;;;;10.90;9.10;;;23.10;1.00;;;;;;6309788;22;20177;-94
2023/06/16 08:16:54;;;;;;;10.88;8.73;;;23.20;1.00;;;;;;6310255;22;20166;-94
2023/06/16 08:19:20;;;;;;;10.45;7.18;;;23.20;1.00;;;;;;6309872;22;20209;-94
2023/06/16 08:21:47;;;;;;;8.05;5.65;;;23.10;1.00;;;;;;6309872;22;20197;-93
2023/06/16 08:24:14;;;;;;;7.25;5.53;;;22.90;1.00;;;;;;6310156;22;20167;-94
2023/06/16 08:26:44;;;;;;;6.65;5.35;;;22.80;1.00;;;;;;6310121;22;20202;-93
2023/06/16 08:29:12;;;;;;;7.70;6.90;;;23.00;1.00;;;;;;6310387;22;20177;-94
2023/06/16 08:31:38;;;;;;;8.25;7.10;;;23.30;1.00;;;;;;6309371;22;20167;-94
2023/06/16 08:34:05;;;;;;;10.00;6.25;;;23.60;1.00;;;;;;6310159;22;20174;-95
2023/06/16 08:36:33;;;;;;;7.45;5.40;;;23.70;99.90;;;;;;6309606;22;20173;-95
2023/06/16 08:38:59;;;;;;;7.50;5.80;;;23.60;99.90;;;;;;6309900;22;20258;-94
2023/06/16 08:41:27;;;;;;;6.40;5.47;;;23.60;99.90;;;;;;6309771;22;20196;-94
2023/06/16 08:43:59;;;;;;;7.50;5.85;;;23.60;99.90;;;;;;6309881;22;20167;-94
2023/06/16 08:46:26;;;;;;;8.35;6.50;;;23.80;99.90;;;;;;6309799;22;20161;-94
2023/06/16 08:48:53;;;;;;;11.13;7.13;;;23.90;99.90;;;;;;6309754;22;20195;-94
2023/06/16 08:51:24;;;;;;;7.53;6.65;;;24.20;99.90;;;;;;6309580;22;20188;-94
2023/06/16 08:53:55;;;;;;;9.18;7.03;;;24.80;99.90;;;;;;6309782;22;20147;-95
2023/06/16 08:56:22;;;;;;;8.52;7.13;;;25.40;99.90;;;;;;6309709;22;20155;-95
2023/06/16 08:58:49;;;;;;;9.52;6.72;;;25.80;99.90;;;;;;6309261;22;20485;-95
2023/06/16 09:01:17;;;;;;;7.55;6.63;;;26.20;99.90;;;;;;6309961;22;20186;-95
2023/06/16 09:03:48;;;;;;;6.85;4.75;;;26.10;99.90;;;;;;6309369;22;20198;-95
2023/06/16 09:06:15;;;;;;;7.68;5.47;;;26.00;99.90;;;;;;6309452;22;20250;-95
2023/06/16 09:08:41;;;;;;;6.75;5.55;;;25.70;99.90;;;;;;6309203;22;20202;-93
2023/06/16 09:11:09;;;;;;;9.23;5.40;;;25.60;99.90;;;;;;6309737;22;20181;-94
2023/06/16 09:13:36;;;;;;;7.00;5.60;;;25.50;99.90;;;;;;6309562;22;20172;-95
2023/06/16 09:16:03;;;;;;;6.22;5.50;;;25.40;99.90;;;;;;6309422;22;20233;-94
2023/06/16 09:18:40;;;;;;;6.78;5.07;;;25.40;99.90;;;;;;6308537;22;20643;-95
2023/06/16 09:21:07;;;;;;;6.72;6.03;;;25.60;99.90;;;;;;6309379;22;20189;-95
2023/06/16 09:23:35;;;;;;;8.93;6.68;;;25.80;99.90;;;;;;6308965;22;20190;-95
2023/06/16 09:26:09;;;;;;;8.48;7.30;;;25.60;99.90;;;;;;6309331;22;20163;-95
2023/06/16 09:28:37;;;;;;;8.32;7.28;;;25.30;99.90;;;;;;6309403;22;20151;-95
2023/06/16 09:31:06;;;;;;;8.93;6.80;;;25.00;99.90;;;;;;6309863;22;20171;-94
2023/06/16 09:33:33;;;;;;;8.43;6.78;;;24.90;99.90;;;;;;6308856;22;20167;-95
2023/06/16 09:36:01;;;;;;;6.70;5.80;;;24.90;99.90;;;;;;6309489;22;20177;-95
2023/06/16 09:38:35;;;;;;;7.22;5.80;;;25.00;99.90;;;;;;6309261;22;20177;-95
2023/06/16 09:41:09;;;;;;;9.68;5.70;;;24.90;99.90;;;;;;6309634;22;20158;-95
2023/06/16 09:43:36;;;;;;;7.93;6.55;;;24.90;99.90;;;;;;6309419;22;20571;-96
2023/06/16 09:46:03;;;;;;;8.18;6.38;;;24.80;99.90;;;;;;6309295;22;20167;-95
2023/06/16 09:48:33;;;;;;;8.48;7.18;;;24.60;99.90;;;;;;6309158;22;20167;-95
2023/06/16 09:51:08;;;;;;;9.15;7.28;;;24.40;99.90;;;;;;6309530;22;20158;-96
2023/06/16 09:53:36;;;;;;;9.02;7.80;;;24.30;99.90;;;;;;6309299;22;20201;-94
2023/06/16 09:56:03;;;;;;;9.57;7.55;;;24.30;99.90;;;;;;6308844;22;20612;-94
2023/06/16 09:58:30;;;;;;;9.48;8.27;;;24.40;99.90;;;;;;6308706;22;20163;-95
2023/06/16 10:00:58;;;;;;;10.02;7.30;;;24.40;99.90;;;;;;6308788;22;20690;-94
2023/06/16 10:03:27;;;;;;;12.38;8.38;;;24.40;99.90;;;;;;6308836;22;20187;-95
2023/06/16 10:05:54;;;;;;;11.63;7.78;;;24.40;99.90;;;;;;6309367;22;20171;-94
2023/06/16 10:08:22;;;;;;;9.98;7.70;;;24.40;99.90;;;;;;6309168;22;20171;-93
2023/06/16 10:10:52;;;;;;;9.70;7.57;;;24.30;99.90;;;;;;6309255;22;20159;-94
2023/06/16 10:13:22;;;;;;;13.60;8.48;;;24.10;99.90;;;;;;6309336;22;20175;-94
2023/06/16 10:15:50;;;;;;;9.65;8.35;;;24.10;99.90;;;;;;6309006;22;20183;-93
2023/06/16 10:18:19;;;;;;;9.52;8.43;;;23.90;99.90;;;;;;6308867;22;20245;-92
2023/06/16 10:20:47;;;;;;;11.60;8.20;;;23.80;99.90;;;;;;6309023;22;20171;-93
2023/06/16 10:23:14;;;;;;;9.57;8.05;;;23.80;99.90;;;;;;6308597;22;20702;-94
2023/06/16 10:25:45;;;;;;;8.85;7.72;;;23.80;99.90;;;;;;6308698;22;20621;-93
2023/06/16 10:28:14;;;;;;;10.93;7.18;;;23.80;99.90;;;;;;6309213;22;20155;-93
2023/06/16 10:30:42;;;;;;;9.15;8.23;;;23.90;99.90;;;;;;6309988;22;20224;-93
2023/06/16 10:33:22;;;;;;;11.13;8.07;;;23.90;99.90;;;;;;6310489;22;20499;-93
2023/06/16 10:35:53;;;;;;;8.43;7.20;;;24.10;99.90;;;;;;6310893;22;20242;-93
2023/06/16 10:38:25;;;;;;;13.68;8.20;;;24.10;99.90;;;;;;6310890;22;20159;-95
2023/06/16 10:40:58;;;;;;;10.05;8.32;;;24.20;99.90;;;;;;6310951;22;20156;-94
2023/06/16 10:43:26;;;;;;;10.88;8.38;;;24.30;99.90;;;;;;6310948;22;20498;-94
2023/06/16 10:46:14;;;;;;;11.10;7.97;;;24.50;99.90;;;;;;6311395;22;20262;-93
2023/06/16 10:49:07;;;;;;;8.20;7.30;;;24.70;99.90;;;;;;6311104;22;20156;-94
2023/06/16 10:51:41;;;;;;;8.48;6.85;;;24.80;99.90;;;;;;6311221;22;20151;-94
2023/06/16 10:54:09;;;;;;;9.00;7.38;;;24.80;99.90;;;;;;6310594;22;20216;-95
2023/06/16 10:57:03;;;;;;;9.88;7.90;;;24.90;99.90;;;;;;6310564;22;20163;-94
2023/06/16 10:59:30;;;;;;;11.55;8.15;;;25.00;99.90;;;;;;6310753;22;20676;-94
2023/06/16 11:01:57;;;;;;;9.20;7.40;;;25.10;99.90;;;;;;6310787;22;20171;-94
2023/06/16 11:04:24;;;;;;;12.32;7.60;;;25.20;99.90;;;;;;6310562;22;20187;-95
2023/06/16 11:07:11;;;;;;;10.02;8.00;;;25.10;99.90;;;;;;6310950;22;20173;-93
2023/06/16 11:09:37;;;;;;;10.10;7.57;;;25.00;99.90;;;;;;6310686;22;20226;-93
2023/06/16 11:12:07;;;;;;;9.88;7.35;;;25.00;99.90;;;;;;6310335;22;20502;-93
2023/06/16 11:14:35;;;;;;;8.48;7.50;;;24.80;99.90;;;;;;6310094;22;20167;-93
2023/06/16 11:17:03;;;;;;;9.80;7.68;;;24.70;99.90;;;;;;6310442;22;20193;-94
2023/06/16 11:19:30;;;;;;;8.70;7.05;;;24.70;99.90;;;;;;6310329;22;20228;-94
2023/06/16 11:22:00;;;;;;;9.95;7.80;;;24.80;99.90;;;;;;6310511;22;20167;-95
2023/06/16 11:24:32;;;;;;;8.40;7.60;;;25.10;99.90;;;;;;6310599;22;20171;-94
2023/06/16 11:26:59;;;;;;;8.50;7.60;;;25.40;99.90;;;;;;6310906;22;20152;-95
2023/06/16 11:29:29;;;;;;;8.80;7.43;;;25.90;99.90;;;;;;6309937;22;20250;-95
2023/06/16 11:31:59;;;;;;;8.80;7.50;;;26.30;99.90;;;;;;6309933;22;20171;-95
2023/06/16 11:34:26;;;;;;;9.52;6.60;;;26.50;99.90;;;;;;6310273;22;20217;-95
2023/06/16 11:36:53;;;;;;;8.00;6.45;;;26.50;99.90;;;;;;6310674;22;20551;-96
2023/06/16 11:39:19;;;;;;;7.90;6.65;;;26.70;99.90;;;;;;6310512;22;20513;-94
2023/06/16 11:41:46;;;;;;;7.82;6.60;;;26.90;99.90;;;;;;6309942;22;20167;-95
2023/06/16 11:44:14;;;;;;;9.65;6.80;;;27.10;99.90;;;;;;6310167;22;20265;-94
2023/06/16 11:46:42;;;;;;;7.90;6.03;;;27.10;99.90;;;;;;6310596;22;20171;-95
2023/06/16 11:49:11;;;;;;;6.75;6.05;;;27.10;99.90;;;;;;6310358;22;20166;-96
2023/06/16 11:51:38;;;;;;;8.70;6.18;;;27.20;99.90;;;;;;6310300;22;20167;-96
2023/06/16 11:54:05;;;;;;;6.05;5.47;;;27.50;99.90;;;;;;6310515;22;20173;-96
2023/06/16 11:56:33;;;;;;;6.03;4.95;;;27.90;99.90;;;;;;6310625;22;20173;-96
2023/06/16 11:59:03;;;;;;;5.78;4.60;;;28.10;99.90;;;;;;6310035;22;20181;-95
2023/06/16 12:01:30;;;;;;;5.68;4.95;;;28.10;99.90;;;;;;6310182;22;20186;-96
2023/06/16 12:03:58;;;;;;;5.60;4.55;;;28.00;99.90;;;;;;6310478;22;20191;-96
2023/06/16 12:06:26;;;;;;;4.90;3.88;;;27.80;99.90;;;;;;6310252;22;20171;-96
2023/06/16 12:08:55;;;;;;;4.78;3.95;;;27.80;99.90;;;;;;6310124;22;20502;-96
2023/06/16 12:11:28;;;;;;;4.40;3.90;;;27.80;99.90;;;;;;6309793;22;20171;-96
2023/06/16 12:13:55;;;;;;;5.15;4.45;;;27.80;98.70;;;;;;6310173;22;20147;-95
2023/06/16 12:16:22;;;;;;;5.20;4.70;;;27.60;92.50;;;;;;6310183;22;20172;-96
2023/06/16 12:18:50;;;;;;;7.30;4.78;;;27.50;88.40;;;;;;6310225;22;20171;-95
2023/06/16 12:21:21;;;;;;;5.85;4.57;;;27.40;90.40;;;;;;6309846;22;20171;-96
2023/06/16 12:23:51;;;;;;;5.97;5.18;;;27.40;85.00;;;;;;6309858;22;20171;-96
2023/06/16 12:26:30;;;;;;;8.70;4.28;;;27.50;83.90;;;;;;6310257;22;20242;-96
2023/06/16 12:28:58;;;;;;;5.28;3.80;;;27.60;73.40;;;;;;6309945;22;20453;-96
2023/06/16 12:31:28;;;;;;;4.00;3.60;;;27.80;70.10;;;;;;6309917;22;20174;-96
2023/06/16 12:33:55;;;;;;;4.85;3.28;;;27.90;67.10;;;;;;6309989;22;20254;-96
2023/06/16 12:36:24;;;;;;;4.72;4.30;;;28.10;59.00;;;;;;6309837;22;20177;-96
2023/06/16 12:38:53;;;;;;;5.40;4.47;;;28.10;54.00;;;;;;6309994;22;20250;-96
2023/06/16 12:41:20;;;;;;;5.40;4.40;;;28.00;53.60;;;;;;6310028;22;20187;-96
2023/06/16 12:43:49;;;;;;;3.90;3.40;;;27.80;45.50;;;;;;6309884;22;20187;-95
2023/06/16 12:46:17;;;;;;;3.97;3.30;;;27.50;49.80;;;;;;6310124;22;20224;-95
2023/06/16 12:48:44;;;;;;;6.75;3.22;;;27.10;54.40;;;;;;6309836;22;20167;-94
2023/06/16 12:51:11;;;;;;;6.00;3.28;;;26.60;57.50;;;;;;6309843;22;20253;-95
2023/06/16 12:53:43;;;;;;;3.90;3.45;;;25.90;62.00;;;;;;6308932;22;20167;-94
2023/06/16 12:56:10;;;;;;;3.50;3.20;;;25.40;70.10;;;;;;6309793;22;20491;-95
2023/06/16 12:58:39;;;;;;;3.35;3.08;;;25.20;80.10;;;;;;6309335;22;20189;-95
2023/06/16 13:01:06;;;;;;;6.10;3.28;;;25.20;89.30;;;;;;6309586;22;20681;-95
2023/06/16 13:03:33;;;;;;;4.25;3.22;;;25.30;90.70;;;;;;6310130;22;20190;-95
2023/06/16 13:06:01;;;;;;;4.57;3.33;;;25.40;90.80;;;;;;6309684;22;20167;-95
2023/06/16 13:08:28;;;;;;;3.88;3.42;;;25.40;90.40;;;;;;6310245;22;20171;-94
2023/06/16 13:10:56;;;;;;;3.70;3.30;;;25.30;92.90;;;;;;6309570;22;20177;-95
2023/06/16 13:13:22;;;;;;;3.55;3.20;;;25.30;94.50;;;;;;6309537;22;20177;-95
2023/06/16 13:15:49;;;;;;;4.22;3.30;;;25.40;96.70;;;;;;6309564;22;20173;-95
2023/06/16 13:18:16;;;;;;;6.15;2.75;;;25.60;97.90;;;;;;6309514;22;20171;-95
2023/06/16 13:20:43;;;;;;;2.90;2.60;;;25.90;99.90;;;;;;6309216;22;20171;-95
2023/06/16 13:23:10;;;;;;;3.13;2.00;;;26.40;99.90;;;;;;6309614;22;20178;-95
2023/06/16 13:25:36;;;;;;;4.15;3.25;;;26.80;97.40;;;;;;6308984;22;20654;-95
2023/06/16 13:28:05;;;;;;;2.78;2.30;;;26.90;92.00;;;;;;6309441;22;20177;-95
2023/06/16 13:30:31;;;;;;;3.45;2.30;;;26.60;82.50;;;;;;6309379;22;20171;-95
2023/06/16 13:32:58;;;;;;;2.50;2.03;;;26.10;84.20;;;;;;6309698;22;20482;-94
2023/06/16 13:35:25;;;;;;;3.65;2.20;;;25.80;82.30;;;;;;6309336;22;20220;-96
2023/06/16 13:37:53;;;;;;;2.20;2.00;;;25.40;80.30;;;;;;6309511;22;20167;-94
2023/06/16 13:40:20;;;;;;;3.80;2.10;;;25.00;86.60;;;;;;6309350;22;20171;-96
2023/06/16 13:42:47;;;;;;;2.92;2.30;;;24.70;90.00;;;;;;6309175;22;20167;-96
2023/06/16 13:45:15;;;;;;;2.20;1.98;;;24.60;92.40;;;;;;6309022;22;20682;-95
2023/06/16 13:47:42;;;;;;;2.38;2.08;;;24.40;92.20;;;;;;6308832;22;20181;-95
2023/06/16 13:50:09;;;;;;;2.70;2.38;;;24.10;94.60;;;;;;6309382;22;20174;-94
2023/06/16 13:52:37;;;;;;;2.38;2.10;;;23.90;97.30;;;;;;6309377;22;20173;-94
2023/06/16 13:55:04;;;;;;;3.63;2.13;;;23.70;98.40;;;;;;6309304;22;20170;-94
2023/06/16 13:57:31;;;;;;;2.35;2.15;;;23.60;99.90;;;;;;6308666;22;20631;-96
2023/06/16 13:59:58;;;;;;;2.88;2.13;;;23.50;99.90;;;;;;6309010;22;20197;-93
2023/06/16 14:02:27;;;;;;;3.67;2.35;;;23.40;99.90;;;;;;6309184;22;20167;-94
2023/06/16 14:04:53;;;;;;;4.28;2.70;;;23.40;99.90;;;;;;6309019;22;20179;-96
2023/06/16 14:07:20;;;;;;;2.60;2.40;;;23.60;99.90;;;;;;6310919;22;20167;-93
2023/06/16 14:09:47;;;;;;;6.90;2.70;;;23.70;99.90;;;;;;6310583;22;20175;-93
2023/06/16 14:12:14;;;;;;;3.58;2.90;;;23.80;99.90;;;;;;6310716;22;20171;-94
2023/06/16 14:14:41;;;;;;;2.78;2.58;;;23.80;99.90;;;;;;6310886;22;20163;-94
2023/06/16 14:17:07;;;;;;;2.67;2.40;;;24.00;99.90;;;;;;6310279;22;20171;-94
2023/06/16 14:19:35;;;;;;;2.97;2.67;;;24.30;99.90;;;;;;6310693;22;20167;-93
2023/06/16 14:22:02;;;;;;;2.58;2.38;;;24.50;99.90;;;;;;6310784;22;20167;-94
2023/06/16 14:24:30;;;;;;;3.25;2.92;;;24.80;99.90;;;;;;6310442;22;20183;-95
2023/06/16 14:26:56;;;;;;;2.67;2.42;;;24.90;99.90;;;;;;6310629;22;20177;-94
2023/06/16 14:29:23;;;;;;;2.60;2.40;;;25.00;99.90;;;;;;6310981;22;20174;-94
2023/06/16 14:31:50;;;;;;;4.30;3.45;;;25.10;99.90;;;;;;6310897;22;20171;-95
2023/06/16 14:34:17;;;;;;;2.50;2.30;;;25.20;99.90;;;;;;6313274;22;20163;-94
2023/06/16 14:36:45;;;;;;;4.30;2.47;;;25.40;99.90;;;;;;6311671;22;20171;-94
2023/06/16 14:39:11;;;;;;;2.47;2.28;;;25.60;99.90;;;;;;6310672;22;20171;-94
2023/06/16 14:41:39;;;;;;;2.75;2.47;;;25.50;99.90;;;;;;6310482;22;20166;-94
2023/06/16 14:44:06;;;;;;;5.75;2.45;;;25.40;99.90;;;;;;6310817;22;20182;-96
2023/06/16 14:46:33;;;;;;;2.70;2.50;;;25.20;99.90;;;;;;6311097;22;20177;-94
2023/06/16 14:48:59;;;;;;;2.38;2.03;;;25.00;99.90;;;;;;6311168;22;20168;-94
2023/06/16 14:51:26;;;;;;;3.00;2.50;;;25.10;99.90;;;;;;6312293;22;20177;-95
2023/06/16 14:53:54;;;;;;;2.20;1.90;;;25.20;99.30;;;;;;6313325;22;20167;-96
2023/06/16 14:56:21;;;;;;;2.72;2.15;;;25.20;99.90;;;;;;6313068;22;20178;-95
2023/06/16 14:58:48;;;;;;;2.85;2.10;;;25.30;99.10;;;;;;6311797;22;20171;-93
2023/06/16 15:01:15;;;;;;;2.63;2.25;;;25.40;99.90;;;;;;6312858;22;20147;-95
2023/06/16 15:03:43;;;;;;;2.50;2.30;;;25.40;96.80;;;;;;6312572;22;20181;-95
2023/06/16 15:06:10;;;;;;;2.40;2.20;;;25.40;98.70;;;;;;6311234;22;20167;-95
2023/06/16 15:08:37;;;;;;;2.95;2.60;;;25.50;96.30;;;;;;6315316;22;20167;-95
2023/06/16 15:11:06;;;;;;;2.50;2.30;;;25.50;95.50;;;;;;6314265;22;20173;-95
2023/06/16 15:13:32;;;;;;;2.88;2.60;;;25.50;97.70;;;;;;6314098;22;20202;-96
2023/06/16 15:15:59;;;;;;;3.25;2.38;;;25.60;97.10;;;;;;6313261;22;20167;-95
2023/06/16 15:18:26;;;;;;;3.00;2.33;;;25.70;95.70;;;;;;6313064;22;20227;-95
2023/06/16 15:20:53;;;;;;;4.00;3.38;;;25.70;94.00;;;;;;6315868;22;20177;-94
2023/06/16 15:23:20;;;;;;;4.75;2.72;;;25.80;91.50;;;;;;6313865;22;20246;-95
2023/06/16 15:25:47;;;;;;;4.95;2.60;;;25.70;90.10;;;;;;6311950;22;20191;-95
2023/06/16 15:28:15;;;;;;;6.53;4.57;;;25.70;92.60;;;;;;6313584;22;20205;-96
2023/06/16 15:30:42;;;;;;;3.50;3.00;;;25.80;92.70;;;;;;6314824;22;20178;-96
2023/06/16 15:33:09;;;;;;;2.50;2.20;;;25.70;91.10;;;;;;6320485;22;20177;-96
2023/06/16 15:35:36;;;;;;;11.50;7.55;;;25.40;90.90;;;;;;6322832;22;20613;-96
2023/06/16 15:38:02;;;;;;;19.92;11.07;;;25.20;90.00;;;;;;6324197;22;20181;-96
2023/06/16 15:40:29;;;;;;;10.50;6.28;;;25.00;88.50;;;;;;6321680;22;20173;-96
2023/06/16 15:43:00;;;;;;;4.15;2.80;;;24.80;91.60;;;;;;6321206;22;20220;-96
2023/06/16 15:45:29;;;;;;;9.25;6.78;;;24.80;94.10;;;;;;6316841;22;20649;-95
2023/06/16 15:47:55;;;;;;;43.75;23.85;;;24.80;96.10;;;;;;6316988;22;20174;-95
2023/06/16 15:50:22;;;;;;;82.30;42.75;;;24.70;96.60;;;;;;6317419;22;20181;-95
2023/06/16 15:52:49;;;;;;;13.63;8.65;;;24.50;98.20;;;;;;6314303;22;20226;-95
2023/06/16 15:55:16;;;;;;;67.03;34.08;;;24.40;99.80;;;;;;6313885;22;20163;-94
2023/06/16 15:57:43;;;;;;;45.90;21.35;;;24.30;99.90;;;;;;6313246;22;20181;-95
2023/06/16 16:00:11;;;;;;;22.65;13.60;;;24.30;99.90;;;;;;6316829;22;20197;-96
2023/06/16 16:02:39;;;;;;;3.83;3.42;;;24.10;99.90;;;;;;6314238;22;20167;-94
2023/06/16 16:05:06;;;;;;;4.25;3.83;;;24.10;99.90;;;;;;6315191;22;20183;-95
2023/06/16 16:07:33;;;;;;;3.95;2.47;;;24.00;99.90;;;;;;6314420;22;20171;-95
2023/06/16 16:10:00;;;;;;;4.10;3.67;;;23.80;99.90;;;;;;6314402;22;20227;-95
2023/06/16 16:12:28;;;;;;;2.60;2.40;;;23.70;99.90;;;;;;6313160;22;20628;-95
2023/06/16 16:14:56;;;;;;;3.63;3.15;;;23.50;99.90;;;;;;6312695;22;20468;-95
2023/06/16 16:17:23;;;;;;;6.60;4.30;;;23.50;99.90;;;;;;6313876;22;20624;-95
2023/06/16 16:19:51;;;;;;;6.47;5.13;;;23.50;99.90;;;;;;6311518;22;20177;-96
2023/06/16 16:22:18;;;;;;;7.03;5.68;;;23.50;99.90;;;;;;6310382;22;20621;-95
2023/06/16 16:24:45;;;;;;;4.28;3.78;;;23.50;99.90;;;;;;6310183;22;20182;-95
2023/06/16 16:27:12;;;;;;;4.70;3.38;;;23.60;99.90;;;;;;6310422;22;20174;-95
2023/06/16 16:29:39;;;;;;;3.88;3.20;;;23.80;99.90;;;;;;6309904;22;20177;-94
2023/06/16 16:32:06;;;;;;;2.60;2.40;;;23.90;99.90;;;;;;6310304;22;20167;-94
2023/06/16 16:34:33;;;;;;;2.58;2.38;;;23.90;99.90;;;;;;6310316;22;20177;-94
2023/06/16 16:37:01;;;;;;;3.22;2.70;;;23.90;99.90;;;;;;6310839;22;20249;-95
2023/06/16 16:39:29;;;;;;;3.20;2.47;;;24.10;99.90;;;;;;6310159;22;20567;-95
2023/06/16 16:41:56;;;;;;;3.30;3.00;;;24.30;99.90;;;;;;6312198;22;20167;-95
2023/06/16 16:44:25;;;;;;;4.53;4.13;;;24.40;99.90;;;;;;6310507;22;20217;-95
2023/06/16 16:46:53;;;;;;;2.53;2.33;;;24.40;99.90;;;;;;6311384;22;20171;-95
2023/06/16 16:49:20;;;;;;;3.10;2.80;;;24.60;99.90;;;;;;6311474;22;20635;-96
2023/06/16 16:51:48;;;;;;;2.88;2.67;;;24.90;99.90;;;;;;6314738;22;20173;-95
2023/06/16 16:54:16;;;;;;;4.53;3.47;;;25.20;99.90;;;;;;6311289;22;20178;-94
2023/06/16 16:56:43;;;;;;;3.78;2.92;;;25.50;96.80;;;;;;6311446;22;20181;-95
2023/06/16 16:59:10;;;;;;;3.47;2.92;;;25.60;93.60;;;;;;6313242;22;20195;-95
2023/06/16 17:01:36;;;;;;;2.90;2.53;;;25.80;92.50;;;;;;6313199;22;20151;-95
2023/06/16 17:04:03;;;;;;;4.28;3.17;;;25.70;86.00;;;;;;6312603;22;20171;-95
2023/06/16 17:06:30;;;;;;;3.63;3.33;;;25.40;90.60;;;;;;6311646;22;20173;-95
2023/06/16 17:08:57;;;;;;;6.93;6.20;;;25.70;93.20;;;;;;6311172;22;20167;-95
2023/06/16 17:11:26;;;;;;;7.13;3.15;;;26.00;91.70;;;;;;6311706;22;20175;-95
2023/06/16 17:13:52;;;;;;;3.03;2.63;;;26.30;93.70;;;;;;6311223;22;20223;-95
2023/06/16 17:16:20;;;;;;;7.63;5.68;;;26.60;91.60;;;;;;6311033;22;20163;-96
2023/06/16 17:18:46;;;;;;;4.60;4.00;;;26.80;88.50;;;;;;6311417;22;20253;-95
2023/06/16 17:21:13;;;;;;;3.38;2.70;;;26.90;81.00;;;;;;6310925;22;20170;-95
2023/06/16 17:23:40;;;;;;;2.25;1.88;;;27.00;73.80;;;;;;6310363;22;20174;-95
2023/06/16 17:26:07;;;;;;;2.85;2.38;;;26.80;61.90;;;;;;6309745;22;20191;-95
2023/06/16 17:28:35;;;;;;;3.03;1.67;;;26.50;57.90;;;;;;6310324;22;20254;-94
2023/06/16 17:31:02;;;;;;;1.80;1.58;;;26.30;59.10;;;;;;6309911;22;20182;-96
2023/06/16 17:33:28;;;;;;;3.25;1.50;;;26.30;57.50;;;;;;6309855;22;20167;-95
2023/06/16 17:35:55;;;;;;;2.75;1.90;;;26.50;60.00;;;;;;6309915;22;20167;-95
2023/06/16 17:38:22;;;;;;;2.10;1.90;;;26.80;60.70;;;;;;6309963;22;20173;-95
2023/06/16 17:40:49;;;;;;;2.45;2.20;;;27.30;58.10;;;;;;6310021;22;20171;-96
2023/06/16 17:43:15;;;;;;;3.38;2.47;;;27.60;55.30;;;;;;6309766;22;20173;-95
2023/06/16 17:45:43;;;;;;;2.40;2.20;;;27.50;54.30;;;;;;6309406;22;20193;-95